sensor_id;sensor_type;location;lat;lon;timestamp;pressure;altitude;pressure_sealevel;temperature;humidity
74895;BME280;63447;49.446;8.666;2022-11-21T00:01:42;99576.09;;;6.11;84.96
74895;BME280;63447;49.446;8.666;2022-11-21T00:04:07;99587.06;;;6.11;85.91
74895;BME280;63447;49.446;8.666;2022-11-21T00:06:32;99583.84;;;6.09;85.50
74895;BME280;63447;49.446;8.666;2022-11-21T00:08:57;99592.72;;;6.15;85.29
74895;BME280;63447;49.446;8.666;2022-11-21T00:11:25;99583.38;;;6.16;84.92
74895;BME280;63447;49.446;8.666;2022-11-21T00:13:50;99580.63;;;6.16;85.39
74895;BME280;63447;49.446;8.666;2022-11-21T00:16:18;99572.72;;;6.15;84.79
74895;BME280;63447;49.446;8.666;2022-11-21T00:18:46;99589.81;;;6.20;85.37
74895;BME280;63447;49.446;8.666;2022-11-21T00:21:17;99591.44;;;6.21;85.71
74895;BME280;63447;49.446;8.666;2022-11-21T00:23:44;99590.94;;;6.19;85.86
74895;BME280;63447;49.446;8.666;2022-11-21T00:26:10;99595.13;;;6.17;84.13
74895;BME280;63447;49.446;8.666;2022-11-21T00:28:38;99592.06;;;6.35;85.04
74895;BME280;63447;49.446;8.666;2022-11-21T00:31:05;99589.97;;;6.32;84.76
74895;BME280;63447;49.446;8.666;2022-11-21T00:33:33;99595.44;;;6.41;84.40
74895;BME280;63447;49.446;8.666;2022-11-21T00:36:05;99566.78;;;6.21;84.18
74895;BME280;63447;49.446;8.666;2022-11-21T00:38:30;99585.94;;;6.21;84.89
74895;BME280;63447;49.446;8.666;2022-11-21T00:40:58;99589.00;;;6.28;84.42
74895;BME280;63447;49.446;8.666;2022-11-21T00:43:25;99590.59;;;6.38;84.56
74895;BME280;63447;49.446;8.666;2022-11-21T00:45:53;99578.34;;;6.27;85.20
74895;BME280;63447;49.446;8.666;2022-11-21T00:48:18;99576.41;;;6.36;83.78
74895;BME280;63447;49.446;8.666;2022-11-21T00:50:46;99579.31;;;6.31;84.69
74895;BME280;63447;49.446;8.666;2022-11-21T00:53:11;99573.34;;;6.29;84.54
74895;BME280;63447;49.446;8.666;2022-11-21T00:55:37;99573.69;;;6.27;84.79
74895;BME280;63447;49.446;8.666;2022-11-21T00:58:04;99568.03;;;6.24;84.68
74895;BME280;63447;49.446;8.666;2022-11-21T01:00:29;99571.75;;;6.36;84.35
74895;BME280;63447;49.446;8.666;2022-11-21T01:02:55;99539.69;;;6.20;84.63
74895;BME280;63447;49.446;8.666;2022-11-21T01:05:37;99564.16;;;6.25;84.94
74895;BME280;63447;49.446;8.666;2022-11-21T01:08:06;99538.72;;;6.07;84.56
74895;BME280;63447;49.446;8.666;2022-11-21T01:10:33;99561.78;;;6.23;83.99
74895;BME280;63447;49.446;8.666;2022-11-21T01:12:58;99559.69;;;6.20;84.83
74895;BME280;63447;49.446;8.666;2022-11-21T01:15:24;99550.34;;;6.21;84.65
74895;BME280;63447;49.446;8.666;2022-11-21T01:17:49;99570.47;;;6.17;84.53
74895;BME280;63447;49.446;8.666;2022-11-21T01:20:14;99562.41;;;6.20;84.93
74895;BME280;63447;49.446;8.666;2022-11-21T01:22:44;99566.13;;;6.16;85.01
74895;BME280;63447;49.446;8.666;2022-11-21T01:25:10;99553.88;;;6.13;84.36
74895;BME280;63447;49.446;8.666;2022-11-21T01:27:35;99565.47;;;6.27;83.71
74895;BME280;63447;49.446;8.666;2022-11-21T01:30:03;99555.50;;;6.14;84.59
74895;BME280;63447;49.446;8.666;2022-11-21T01:32:28;99557.91;;;6.16;84.20
74895;BME280;63447;49.446;8.666;2022-11-21T01:34:53;99555.00;;;6.21;85.05
74895;BME280;63447;49.446;8.666;2022-11-21T01:37:19;99559.19;;;6.18;84.81
74895;BME280;63447;49.446;8.666;2022-11-21T01:39:47;99542.13;;;6.21;84.11
74895;BME280;63447;49.446;8.666;2022-11-21T01:42:12;99541.00;;;6.22;84.82
74895;BME280;63447;49.446;8.666;2022-11-21T01:44:50;99535.69;;;6.17;84.93
74895;BME280;63447;49.446;8.666;2022-11-21T01:47:17;99541.47;;;6.16;85.04
74895;BME280;63447;49.446;8.666;2022-11-21T01:49:44;99523.25;;;6.11;85.31
74895;BME280;63447;49.446;8.666;2022-11-21T01:52:28;99529.06;;;6.01;85.07
74895;BME280;63447;49.446;8.666;2022-11-21T01:55:02;99523.75;;;6.04;85.81
74895;BME280;63447;49.446;8.666;2022-11-21T01:57:37;99523.25;;;6.02;85.44
74895;BME280;63447;49.446;8.666;2022-11-21T02:02:48;99527.59;;;6.03;85.57
74895;BME280;63447;49.446;8.666;2022-11-21T02:05:21;99526.50;;;5.96;85.04
74895;BME280;63447;49.446;8.666;2022-11-21T02:07:54;99537.59;;;5.99;84.42
74895;BME280;63447;49.446;8.666;2022-11-21T02:10:21;99530.66;;;6.02;84.40
74895;BME280;63447;49.446;8.666;2022-11-21T02:12:57;99537.59;;;5.99;84.29
74895;BME280;63447;49.446;8.666;2022-11-21T02:15:26;99540.81;;;6.01;85.33
74895;BME280;63447;49.446;8.666;2022-11-21T02:17:54;99526.81;;;5.94;85.35
74895;BME280;63447;49.446;8.666;2022-11-21T02:20:25;99520.72;;;5.97;85.50
74895;BME280;63447;49.446;8.666;2022-11-21T02:25:37;99528.56;;;6.07;84.81
74895;BME280;63447;49.446;8.666;2022-11-21T02:28:08;99523.44;;;6.06;84.67
74895;BME280;63447;49.446;8.666;2022-11-21T02:30:36;99476.19;;;5.74;84.92
74895;BME280;63447;49.446;8.666;2022-11-21T02:33:02;99521.34;;;6.11;84.35
74895;BME280;63447;49.446;8.666;2022-11-21T02:35:28;99517.94;;;6.06;84.38
74895;BME280;63447;49.446;8.666;2022-11-21T02:37:59;99515.84;;;6.03;85.08
74895;BME280;63447;49.446;8.666;2022-11-21T02:40:26;99517.31;;;6.09;85.18
74895;BME280;63447;49.446;8.666;2022-11-21T02:43:06;99522.78;;;6.09;84.85
74895;BME280;63447;49.446;8.666;2022-11-21T02:45:41;99513.75;;;6.08;84.35
74895;BME280;63447;49.446;8.666;2022-11-21T02:48:07;99519.88;;;6.14;83.81
74895;BME280;63447;49.446;8.666;2022-11-21T02:50:34;99516.66;;;6.12;84.75
74895;BME280;63447;49.446;8.666;2022-11-21T02:53:07;99516.03;;;6.15;84.30
74895;BME280;63447;49.446;8.666;2022-11-21T02:55:33;99514.88;;;6.16;84.88
74895;BME280;63447;49.446;8.666;2022-11-21T02:57:58;99510.53;;;6.15;84.02
74895;BME280;63447;49.446;8.666;2022-11-21T03:00:24;99490.06;;;6.04;84.17
74895;BME280;63447;49.446;8.666;2022-11-21T03:02:49;99501.84;;;6.13;84.42
74895;BME280;63447;49.446;8.666;2022-11-21T03:05:18;99500.06;;;6.17;85.38
74895;BME280;63447;49.446;8.666;2022-11-21T03:07:44;99504.59;;;6.13;84.61
74895;BME280;63447;49.446;8.666;2022-11-21T03:10:12;99488.31;;;6.08;85.21
74895;BME280;63447;49.446;8.666;2022-11-21T03:12:38;99497.81;;;6.19;84.94
74895;BME280;63447;49.446;8.666;2022-11-21T03:15:06;99496.38;;;6.13;85.56
74895;BME280;63447;49.446;8.666;2022-11-21T03:17:32;99499.59;;;6.15;86.02
74895;BME280;63447;49.446;8.666;2022-11-21T03:19:58;99494.59;;;6.08;86.39
74895;BME280;63447;49.446;8.666;2022-11-21T03:22:23;99502.97;;;6.21;85.55
74895;BME280;63447;49.446;8.666;2022-11-21T03:24:48;99495.84;;;6.28;85.42
74895;BME280;63447;49.446;8.666;2022-11-21T03:27:15;99495.69;;;6.33;85.45
74895;BME280;63447;49.446;8.666;2022-11-21T03:29:43;99496.81;;;6.24;85.36
74895;BME280;63447;49.446;8.666;2022-11-21T03:32:11;99492.50;;;6.14;85.99
74895;BME280;63447;49.446;8.666;2022-11-21T03:34:39;99508.94;;;6.14;86.04
74895;BME280;63447;49.446;8.666;2022-11-21T03:37:04;99502.00;;;6.17;85.71
74895;BME280;63447;49.446;8.666;2022-11-21T03:39:32;99501.03;;;6.12;86.92
74895;BME280;63447;49.446;8.666;2022-11-21T03:41:57;99508.28;;;6.17;86.23
74895;BME280;63447;49.446;8.666;2022-11-21T03:44:22;99501.84;;;6.13;86.60
74895;BME280;63447;49.446;8.666;2022-11-21T03:46:48;99504.75;;;6.08;87.43
74895;BME280;63447;49.446;8.666;2022-11-21T03:49:18;99504.41;;;6.09;86.53
74895;BME280;63447;49.446;8.666;2022-11-21T03:51:46;99506.34;;;6.09;87.09
74895;BME280;63447;49.446;8.666;2022-11-21T03:54:14;99503.44;;;6.14;86.55
74895;BME280;63447;49.446;8.666;2022-11-21T03:56:39;99486.69;;;5.98;86.87
74895;BME280;63447;49.446;8.666;2022-11-21T03:59:04;99494.75;;;6.21;86.31
74895;BME280;63447;49.446;8.666;2022-11-21T04:01:30;99496.38;;;6.13;86.22
74895;BME280;63447;49.446;8.666;2022-11-21T04:03:55;99503.63;;;6.18;86.28
74895;BME280;63447;49.446;8.666;2022-11-21T04:06:29;99498.63;;;6.11;85.99
74895;BME280;63447;49.446;8.666;2022-11-21T04:08:55;99478.16;;;6.00;85.92
74895;BME280;63447;49.446;8.666;2022-11-21T04:11:23;99492.19;;;6.16;85.45
74895;BME280;63447;49.446;8.666;2022-11-21T04:13:51;99498.94;;;6.18;85.93
74895;BME280;63447;49.446;8.666;2022-11-21T04:16:21;99494.72;;;6.29;84.63
74895;BME280;63447;49.446;8.666;2022-11-21T04:18:46;99485.09;;;6.23;85.27
74895;BME280;63447;49.446;8.666;2022-11-21T04:21:14;99493.13;;;6.20;85.54
74895;BME280;63447;49.446;8.666;2022-11-21T04:23:42;99484.75;;;6.16;85.42
74895;BME280;63447;49.446;8.666;2022-11-21T04:26:07;99474.44;;;6.04;85.75
74895;BME280;63447;49.446;8.666;2022-11-21T04:28:35;99496.69;;;6.20;84.90
74895;BME280;63447;49.446;8.666;2022-11-21T04:31:01;99490.56;;;6.06;85.99
74895;BME280;63447;49.446;8.666;2022-11-21T04:33:29;99498.47;;;6.07;84.92
74895;BME280;63447;49.446;8.666;2022-11-21T04:35:57;99493.66;;;5.96;85.35
74895;BME280;63447;49.446;8.666;2022-11-21T04:38:23;99499.41;;;6.03;85.82
74895;BME280;63447;49.446;8.666;2022-11-21T04:40:48;99493.47;;;6.01;86.44
74895;BME280;63447;49.446;8.666;2022-11-21T04:43:13;99498.44;;;5.99;86.26
74895;BME280;63447;49.446;8.666;2022-11-21T04:45:39;99500.53;;;6.02;86.85
74895;BME280;63447;49.446;8.666;2022-11-21T04:48:04;99497.47;;;6.03;86.98
74895;BME280;63447;49.446;8.666;2022-11-21T04:50:34;99491.84;;;6.00;86.21
74895;BME280;63447;49.446;8.666;2022-11-21T04:53:00;99490.44;;;5.94;87.59
74895;BME280;63447;49.446;8.666;2022-11-21T04:55:31;99469.94;;;5.83;86.98
74895;BME280;63447;49.446;8.666;2022-11-21T04:57:58;99487.69;;;5.94;87.57
74895;BME280;63447;49.446;8.666;2022-11-21T05:00:24;99489.41;;;5.81;87.53
74895;BME280;63447;49.446;8.666;2022-11-21T05:02:49;99491.38;;;5.98;87.48
74895;BME280;63447;49.446;8.666;2022-11-21T05:05:20;99467.56;;;5.90;87.24
74895;BME280;63447;49.446;8.666;2022-11-21T05:07:45;99480.75;;;5.96;87.02
74895;BME280;63447;49.446;8.666;2022-11-21T05:10:11;99492.81;;;6.04;86.88
74895;BME280;63447;49.446;8.666;2022-11-21T05:12:36;99488.47;;;6.03;87.00
74895;BME280;63447;49.446;8.666;2022-11-21T05:15:20;99497.31;;;6.00;86.63
74895;BME280;63447;49.446;8.666;2022-11-21T05:17:50;99494.91;;;5.98;86.65
74895;BME280;63447;49.446;8.666;2022-11-21T05:20:15;99494.59;;;5.91;87.10
74895;BME280;63447;49.446;8.666;2022-11-21T05:22:44;99496.66;;;5.86;87.19
74895;BME280;63447;49.446;8.666;2022-11-21T05:25:16;99478.13;;;5.83;86.27
74895;BME280;63447;49.446;8.666;2022-11-21T05:27:41;99479.91;;;5.87;87.19
74895;BME280;63447;49.446;8.666;2022-11-21T05:30:07;99489.78;;;5.97;85.97
74895;BME280;63447;49.446;8.666;2022-11-21T05:32:35;99490.25;;;5.99;86.42
74895;BME280;63447;49.446;8.666;2022-11-21T05:35:02;99489.28;;;5.95;86.57
74895;BME280;63447;49.446;8.666;2022-11-21T05:37:30;99492.50;;;6.05;86.30
74895;BME280;63447;49.446;8.666;2022-11-21T05:39:58;99501.34;;;6.02;85.99
74895;BME280;63447;49.446;8.666;2022-11-21T05:42:33;99497.66;;;6.07;86.66
74895;BME280;63447;49.446;8.666;2022-11-21T05:45:23;99491.69;;;6.05;86.44
74895;BME280;63447;49.446;8.666;2022-11-21T05:47:49;99486.84;;;6.02;85.66
74895;BME280;63447;49.446;8.666;2022-11-21T05:50:24;99478.63;;;6.02;85.99
74895;BME280;63447;49.446;8.666;2022-11-21T05:52:50;99493.47;;;6.01;86.84
74895;BME280;63447;49.446;8.666;2022-11-21T05:55:17;99485.59;;;5.91;87.53
74895;BME280;63447;49.446;8.666;2022-11-21T05:57:45;99502.31;;;5.98;86.26
74895;BME280;63447;49.446;8.666;2022-11-21T06:00:13;99499.56;;;5.98;86.34
74895;BME280;63447;49.446;8.666;2022-11-21T06:02:39;99499.75;;;6.01;86.35
74895;BME280;63447;49.446;8.666;2022-11-21T06:05:23;99491.88;;;5.91;86.67
74895;BME280;63447;49.446;8.666;2022-11-21T06:07:55;99495.09;;;5.93;87.02
74895;BME280;63447;49.446;8.666;2022-11-21T06:10:20;99497.19;;;5.96;87.34
74895;BME280;63447;49.446;8.666;2022-11-21T06:12:50;99494.56;;;5.83;88.00
74895;BME280;63447;49.446;8.666;2022-11-21T06:15:16;99495.22;;;5.88;87.95
74895;BME280;63447;49.446;8.666;2022-11-21T06:17:41;99498.00;;;5.97;87.24
74895;BME280;63447;49.446;8.666;2022-11-21T06:20:07;99495.41;;;5.92;87.64
74895;BME280;63447;49.446;8.666;2022-11-21T06:22:32;99494.41;;;5.88;87.20
74895;BME280;63447;49.446;8.666;2022-11-21T06:24:58;99495.41;;;5.92;87.46
74895;BME280;63447;49.446;8.666;2022-11-21T06:27:23;99496.84;;;5.89;87.73
74895;BME280;63447;49.446;8.666;2022-11-21T06:29:51;99481.53;;;5.79;88.13
74895;BME280;63447;49.446;8.666;2022-11-21T06:32:16;99498.63;;;5.94;87.05
74895;BME280;63447;49.446;8.666;2022-11-21T06:34:44;99495.06;;;5.85;87.53
74895;BME280;63447;49.446;8.666;2022-11-21T06:37:11;99508.78;;;5.93;87.61
74895;BME280;63447;49.446;8.666;2022-11-21T06:39:36;99496.06;;;5.97;87.16
74895;BME280;63447;49.446;8.666;2022-11-21T06:42:02;99497.84;;;5.93;89.02
74895;BME280;63447;49.446;8.666;2022-11-21T06:44:29;99508.56;;;6.24;88.37
74895;BME280;63447;49.446;8.666;2022-11-21T06:46:55;99511.97;;;6.38;88.38
74895;BME280;63447;49.446;8.666;2022-11-21T06:49:20;99511.63;;;6.40;86.88
74895;BME280;63447;49.446;8.666;2022-11-21T06:51:48;99510.19;;;6.42;88.27
74895;BME280;63447;49.446;8.666;2022-11-21T06:54:19;99509.84;;;6.44;85.39
74895;BME280;63447;49.446;8.666;2022-11-21T06:56:44;99515.94;;;6.67;88.33
74895;BME280;63447;49.446;8.666;2022-11-21T06:59:12;99509.38;;;6.33;85.40
74895;BME280;63447;49.446;8.666;2022-11-21T07:01:37;99513.91;;;6.29;86.69
74895;BME280;63447;49.446;8.666;2022-11-21T07:04:02;99507.16;;;6.18;86.73
74895;BME280;63447;49.446;8.666;2022-11-21T07:06:30;99511.50;;;6.19;86.45
74895;BME280;63447;49.446;8.666;2022-11-21T07:08:55;99513.59;;;6.13;86.05
74895;BME280;63447;49.446;8.666;2022-11-21T07:11:21;99512.00;;;6.12;86.83
74895;BME280;63447;49.446;8.666;2022-11-21T07:13:51;99512.63;;;6.09;86.66
74895;BME280;63447;49.446;8.666;2022-11-21T07:16:19;99511.19;;;6.03;87.52
74895;BME280;63447;49.446;8.666;2022-11-21T07:18:44;99499.91;;;6.05;87.00
74895;BME280;63447;49.446;8.666;2022-11-21T07:21:09;99509.91;;;6.09;86.05
74895;BME280;63447;49.446;8.666;2022-11-21T07:23:35;99508.44;;;6.03;86.79
74895;BME280;63447;49.446;8.666;2022-11-21T07:26:01;99515.84;;;6.11;87.55
74895;BME280;63447;49.446;8.666;2022-11-21T07:28:28;99519.88;;;6.14;86.95
74895;BME280;63447;49.446;8.666;2022-11-21T07:30:57;99523.44;;;6.23;85.93
74895;BME280;63447;49.446;8.666;2022-11-21T07:33:26;99522.47;;;6.19;86.46
74895;BME280;63447;49.446;8.666;2022-11-21T07:35:54;99501.84;;;6.13;84.09
74895;BME280;63447;49.446;8.666;2022-11-21T07:38:20;99518.28;;;6.22;84.05
74895;BME280;63447;49.446;8.666;2022-11-21T07:40:45;99520.50;;;6.28;83.22
74895;BME280;63447;49.446;8.666;2022-11-21T07:43:10;99519.06;;;6.39;82.43
74895;BME280;63447;49.446;8.666;2022-11-21T07:45:36;99530.50;;;6.41;82.39
74895;BME280;63447;49.446;8.666;2022-11-21T07:48:03;99530.13;;;6.52;81.89
74895;BME280;63447;49.446;8.666;2022-11-21T07:50:29;99526.63;;;6.42;82.10
74895;BME280;63447;49.446;8.666;2022-11-21T07:53:03;99536.63;;;6.30;82.78
74895;BME280;63447;49.446;8.666;2022-11-21T07:55:29;99537.09;;;6.32;82.16
74895;BME280;63447;49.446;8.666;2022-11-21T07:57:58;99541.28;;;6.38;82.59
74895;BME280;63447;49.446;8.666;2022-11-21T08:00:28;99535.50;;;6.31;82.85
74895;BME280;63447;49.446;8.666;2022-11-21T08:02:54;99539.19;;;6.26;82.20
74895;BME280;63447;49.446;8.666;2022-11-21T08:05:19;99536.78;;;6.42;82.00
74895;BME280;63447;49.446;8.666;2022-11-21T08:07:47;99537.75;;;6.29;81.70
74895;BME280;63447;49.446;8.666;2022-11-21T08:10:15;99538.38;;;6.34;82.42
74895;BME280;63447;49.446;8.666;2022-11-21T08:12:42;99545.81;;;6.34;82.05
74895;BME280;63447;49.446;8.666;2022-11-21T08:15:08;99524.06;;;6.20;82.53
74895;BME280;63447;49.446;8.666;2022-11-21T08:17:33;99548.38;;;6.39;82.52
74895;BME280;63447;49.446;8.666;2022-11-21T08:19:58;99547.41;;;6.35;82.09
74895;BME280;63447;49.446;8.666;2022-11-21T08:22:25;99523.41;;;6.40;80.98
74895;BME280;63447;49.446;8.666;2022-11-21T08:24:51;99516.63;;;6.38;81.60
74895;BME280;63447;49.446;8.666;2022-11-21T08:27:18;99540.72;;;6.79;80.19
74895;BME280;63447;49.446;8.666;2022-11-21T08:29:48;99537.69;;;6.63;80.97
74895;BME280;63447;49.446;8.666;2022-11-21T08:32:13;99541.56;;;6.62;80.49
74895;BME280;63447;49.446;8.666;2022-11-21T08:34:39;99532.19;;;6.72;79.98
74895;BME280;63447;49.446;8.666;2022-11-21T08:37:06;99536.19;;;6.83;79.81
74895;BME280;63447;49.446;8.666;2022-11-21T08:39:32;99540.69;;;6.88;78.35
74895;BME280;63447;49.446;8.666;2022-11-21T08:41:58;99544.53;;;6.95;77.89
74895;BME280;63447;49.446;8.666;2022-11-21T08:44:30;99534.31;;;7.04;76.13
74895;BME280;63447;49.446;8.666;2022-11-21T08:46:56;99535.28;;;7.08;73.94
74895;BME280;63447;49.446;8.666;2022-11-21T08:49:22;99512.81;;;7.24;73.17
74895;BME280;63447;49.446;8.666;2022-11-21T08:51:50;99509.91;;;7.20;73.44
74895;BME280;63447;49.446;8.666;2022-11-21T08:54:22;99502.44;;;7.00;74.26
74895;BME280;63447;49.446;8.666;2022-11-21T08:56:52;99523.16;;;7.18;75.03
74895;BME280;63447;49.446;8.666;2022-11-21T08:59:17;99503.44;;;7.25;73.96
74895;BME280;63447;49.446;8.666;2022-11-21T09:01:43;99496.38;;;7.44;73.26
74895;BME280;63447;49.446;8.666;2022-11-21T09:04:09;99511.69;;;7.45;71.10
74895;BME280;63447;49.446;8.666;2022-11-21T09:06:35;99514.84;;;7.56;69.53
74895;BME280;63447;49.446;8.666;2022-11-21T09:09:01;99511.72;;;7.87;70.18
74895;BME280;63447;49.446;8.666;2022-11-21T09:11:28;99503.34;;;7.83;70.88
74895;BME280;63447;49.446;8.666;2022-11-21T09:13:57;99509.59;;;7.93;72.49
74895;BME280;63447;49.446;8.666;2022-11-21T09:16:42;99512.34;;;7.93;71.17
74895;BME280;63447;49.446;8.666;2022-11-21T09:19:32;99503.69;;;7.82;69.02
74895;BME280;63447;49.446;8.666;2022-11-21T09:21:58;99517.34;;;7.91;68.94
74895;BME280;63447;49.446;8.666;2022-11-21T09:24:23;99515.16;;;8.05;69.86
74895;BME280;63447;49.446;8.666;2022-11-21T09:26:50;99502.13;;;8.14;70.19
74895;BME280;63447;49.446;8.666;2022-11-21T09:29:16;99512.63;;;8.00;70.66
74895;BME280;63447;49.446;8.666;2022-11-21T09:31:43;99496.09;;;7.58;71.03
74895;BME280;63447;49.446;8.666;2022-11-21T09:34:11;99490.66;;;7.79;69.86
74895;BME280;63447;49.446;8.666;2022-11-21T09:36:39;99498.09;;;7.78;69.33
74895;BME280;63447;49.446;8.666;2022-11-21T09:39:04;99487.84;;;8.99;65.81
74895;BME280;63447;49.446;8.666;2022-11-21T09:41:40;99495.47;;;8.69;64.82
74895;BME280;63447;49.446;8.666;2022-11-21T09:45:36;99491.78;;;9.74;62.78
74895;BME280;63447;49.446;8.666;2022-11-21T09:47:41;99483.00;;;11.47;59.22
74895;BME280;63447;49.446;8.666;2022-11-21T09:53:05;99471.59;;;12.83;51.13
74895;BME280;63447;49.446;8.666;2022-11-21T09:58:04;99461.66;;;13.05;50.75
74895;BME280;63447;49.446;8.666;2022-11-21T10:00:35;99465.50;;;13.73;48.64
74895;BME280;63447;49.446;8.666;2022-11-21T10:03:00;99462.91;;;14.91;47.00
74895;BME280;63447;49.446;8.666;2022-11-21T10:05:40;99443.91;;;13.59;47.57
74895;BME280;63447;49.446;8.666;2022-11-21T10:08:16;99436.13;;;12.05;52.17
74895;BME280;63447;49.446;8.666;2022-11-21T10:10:54;99448.69;;;10.66;57.25
74895;BME280;63447;49.446;8.666;2022-11-21T10:19:46;99431.41;;;11.70;55.60
74895;BME280;63447;49.446;8.666;2022-11-21T10:22:07;99429.22;;;13.29;50.28
74895;BME280;63447;49.446;8.666;2022-11-21T10:27:39;99416.38;;;15.28;42.86
74895;BME280;63447;49.446;8.666;2022-11-21T10:30:05;99424.59;;;15.14;43.63
74895;BME280;63447;49.446;8.666;2022-11-21T10:32:39;99420.84;;;15.47;42.23
74895;BME280;63447;49.446;8.666;2022-11-21T10:35:38;99420.16;;;15.61;43.05
74895;BME280;63447;49.446;8.666;2022-11-21T10:38:20;99409.41;;;16.75;39.95
74895;BME280;63447;49.446;8.666;2022-11-21T10:46:11;99386.31;;;17.20;37.71
74895;BME280;63447;49.446;8.666;2022-11-21T10:48:36;99392.19;;;15.33;43.02
74895;BME280;63447;49.446;8.666;2022-11-21T10:51:34;99401.56;;;15.14;44.23
74895;BME280;63447;49.446;8.666;2022-11-21T10:56:52;99384.50;;;13.04;50.16
74895;BME280;63447;49.446;8.666;2022-11-21T10:59:26;99373.66;;;14.11;47.50
74895;BME280;63447;49.446;8.666;2022-11-21T11:02:01;99350.34;;;15.87;44.63
74895;BME280;63447;49.446;8.666;2022-11-21T11:04:33;99344.94;;;16.94;39.48
74895;BME280;63447;49.446;8.666;2022-11-21T11:07:21;99353.25;;;16.26;40.66
74895;BME280;63447;49.446;8.666;2022-11-21T11:09:50;99351.16;;;15.91;42.16
74895;BME280;63447;49.446;8.666;2022-11-21T11:12:30;99348.84;;;16.08;41.05
74895;BME280;63447;49.446;8.666;2022-11-21T11:15:22;99349.06;;;14.10;46.57
74895;BME280;63447;49.446;8.666;2022-11-21T11:18:11;99342.91;;;15.26;44.71
74895;BME280;63447;49.446;8.666;2022-11-21T11:20:39;99342.34;;;15.68;43.48
74895;BME280;63447;49.446;8.666;2022-11-21T11:26:13;99329.84;;;14.72;44.30
74895;BME280;63447;49.446;8.666;2022-11-21T11:28:35;99315.47;;;14.59;45.17
74895;BME280;63447;49.446;8.666;2022-11-21T11:31:00;99310.06;;;13.58;46.95
74895;BME280;63447;49.446;8.666;2022-11-21T11:33:34;99288.22;;;13.50;48.17
74895;BME280;63447;49.446;8.666;2022-11-21T11:36:14;99299.50;;;12.55;50.39
74895;BME280;63447;49.446;8.666;2022-11-21T11:38:47;99290.09;;;11.49;53.61
74895;BME280;63447;49.446;8.666;2022-11-21T11:47:51;99269.69;;;11.15;55.14
74895;BME280;63447;49.446;8.666;2022-11-21T11:50:48;99279.09;;;11.91;53.36
74895;BME280;63447;49.446;8.666;2022-11-21T11:53:22;99269.38;;;12.76;49.53
74895;BME280;63447;49.446;8.666;2022-11-21T11:56:01;99263.81;;;13.63;49.77
74895;BME280;63447;49.446;8.666;2022-11-21T12:04:43;99211.22;;;16.87;38.57
74895;BME280;63447;49.446;8.666;2022-11-21T12:09:53;99227.50;;;20.55;33.85
74895;BME280;63447;49.446;8.666;2022-11-21T12:15:17;99235.03;;;18.86;34.62
74895;BME280;63447;49.446;8.666;2022-11-21T12:37:04;99188.38;;;15.07;42.61
74895;BME280;63447;49.446;8.666;2022-11-21T12:42:40;99185.81;;;16.46;40.62
74895;BME280;63447;49.446;8.666;2022-11-21T12:45:36;99182.44;;;18.36;37.20
74895;BME280;63447;49.446;8.666;2022-11-21T12:54:26;99181.06;;;15.97;40.83
74895;BME280;63447;49.446;8.666;2022-11-21T12:57:13;99170.63;;;17.62;37.66
74895;BME280;63447;49.446;8.666;2022-11-21T13:05:34;99134.16;;;16.31;39.10
74895;BME280;63447;49.446;8.666;2022-11-21T13:08:10;99131.72;;;15.37;42.45
74895;BME280;63447;49.446;8.666;2022-11-21T13:10:40;99146.50;;;15.94;41.32
74895;BME280;63447;49.446;8.666;2022-11-21T13:13:28;99122.56;;;15.22;42.57
74895;BME280;63447;49.446;8.666;2022-11-21T13:16:10;99118.81;;;14.68;43.92
74895;BME280;63447;49.446;8.666;2022-11-21T13:18:43;99128.41;;;14.16;46.73
74895;BME280;63447;49.446;8.666;2022-11-21T13:21:46;99122.34;;;13.52;48.08
74895;BME280;63447;49.446;8.666;2022-11-21T13:27:28;99105.66;;;13.45;47.63
74895;BME280;63447;49.446;8.666;2022-11-21T13:32:41;99097.13;;;13.64;47.34
74895;BME280;63447;49.446;8.666;2022-11-21T13:43:23;99076.00;;;12.11;51.25
74895;BME280;63447;49.446;8.666;2022-11-21T13:45:51;99074.69;;;12.02;50.55
74895;BME280;63447;49.446;8.666;2022-11-21T13:54:01;99075.84;;;12.94;49.50
74895;BME280;63447;49.446;8.666;2022-11-21T13:56:35;99066.34;;;13.76;46.60
74895;BME280;63447;49.446;8.666;2022-11-21T14:08:29;99039.66;;;11.34;52.00
74895;BME280;63447;49.446;8.666;2022-11-21T14:10:55;99039.31;;;11.12;53.60
74895;BME280;63447;49.446;8.666;2022-11-21T14:18:29;98997.09;;;11.12;54.36
74895;BME280;63447;49.446;8.666;2022-11-21T14:20:57;99028.34;;;10.74;56.49
74895;BME280;63447;49.446;8.666;2022-11-21T14:23:27;99026.28;;;10.29;57.69
74895;BME280;63447;49.446;8.666;2022-11-21T14:26:14;99010.63;;;10.33;58.18
74895;BME280;63447;49.446;8.666;2022-11-21T14:28:43;99003.16;;;9.79;60.23
74895;BME280;63447;49.446;8.666;2022-11-21T14:31:12;99016.31;;;10.05;59.98
74895;BME280;63447;49.446;8.666;2022-11-21T14:33:39;99015.00;;;9.99;60.42
74895;BME280;63447;49.446;8.666;2022-11-21T14:36:18;99023.88;;;10.08;60.24
74895;BME280;63447;49.446;8.666;2022-11-21T14:39:05;99017.31;;;10.16;59.81
74895;BME280;63447;49.446;8.666;2022-11-21T14:41:32;98981.91;;;9.60;61.40
74895;BME280;63447;49.446;8.666;2022-11-21T14:48:52;98994.53;;;9.45;62.74
74895;BME280;63447;49.446;8.666;2022-11-21T14:51:22;98998.78;;;9.43;62.57
74895;BME280;63447;49.446;8.666;2022-11-21T14:53:49;98979.50;;;9.59;61.87
74895;BME280;63447;49.446;8.666;2022-11-21T14:56:32;98941.19;;;9.34;61.97
74895;BME280;63447;49.446;8.666;2022-11-21T14:59:03;98976.59;;;9.36;64.09
74895;BME280;63447;49.446;8.666;2022-11-21T15:01:33;98966.59;;;9.28;63.86
74895;BME280;63447;49.446;8.666;2022-11-21T15:03:59;98946.94;;;9.45;63.77
74895;BME280;63447;49.446;8.666;2022-11-21T15:06:26;98931.72;;;9.51;63.19
74895;BME280;63447;49.446;8.666;2022-11-21T15:08:57;98913.97;;;9.48;63.89
74895;BME280;63447;49.446;8.666;2022-11-21T15:11:34;98887.44;;;9.40;63.32
74895;BME280;63447;49.446;8.666;2022-11-21T15:14:05;98887.44;;;9.40;63.21
74895;BME280;63447;49.446;8.666;2022-11-21T15:16:37;98891.88;;;9.45;62.31
74895;BME280;63447;49.446;8.666;2022-11-21T15:19:09;98871.59;;;8.99;63.16
74895;BME280;63447;49.446;8.666;2022-11-21T15:21:35;98873.53;;;8.98;63.10
74895;BME280;63447;49.446;8.666;2022-11-21T15:26:57;98867.34;;;9.21;63.58